Time;durP1;ratioP1;P1;durP2;ratioP2;P2;SDS_P1;SDS_P2;PMS_P1;PMS_P2;Temp;Humidity;BMP_temperature;BMP_pressure;BME280_temperature;BME280_humidity;BME280_pressure;Samples;Min_cycle;Max_cycle;Signal;HPM_P1;HPM_P2
2023/03/23 00:00:58;;;;;;;9.83;6.77;;;;;;;13.16;83.36;97570.94;4110834;28;20972;-87
2023/03/23 00:03:01;;;;;;;7.07;6.27;;;;;;;13.16;81.84;97572.75;4137323;28;21042;-86
2023/03/23 00:05:04;;;;;;;9.30;5.90;;;;;;;13.18;81.67;97576.88;4122001;28;20674;-86
2023/03/23 00:07:06;;;;;;;8.43;5.60;;;;;;;13.21;80.96;97576.59;4106735;28;20668;-86
2023/03/23 00:09:09;;;;;;;6.50;5.80;;;;;;;13.26;81.42;97579.63;4107796;28;20649;-87
2023/03/23 00:11:14;;;;;;;7.60;6.27;;;;;;;13.31;80.78;97572.22;4117932;28;20621;-86
2023/03/23 00:13:19;;;;;;;6.53;5.57;;;;;;;13.33;80.43;97559.81;4118464;28;20631;-86
2023/03/23 00:15:24;;;;;;;6.93;5.13;;;;;;;13.36;80.21;97565.59;4116529;28;20630;-86
2023/03/23 00:17:32;;;;;;;6.70;5.07;;;;;;;13.40;79.29;97567.00;4106241;28;20712;-86
2023/03/23 00:19:45;;;;;;;8.03;6.73;;;;;;;13.46;78.75;97563.03;4109412;28;20645;-86
2023/03/23 00:21:47;;;;;;;6.93;5.60;;;;;;;13.51;77.11;97566.88;4096630;28;20658;-87
2023/03/23 00:23:49;;;;;;;7.33;5.47;;;;;;;13.55;78.05;97565.66;4112185;28;20711;-86
2023/03/23 00:25:56;;;;;;;6.43;5.57;;;;;;;13.59;76.96;97563.59;4104193;28;20688;-86
2023/03/23 00:27:58;;;;;;;6.40;4.63;;;;;;;13.63;77.48;97554.50;4103495;28;21371;-86
2023/03/23 00:30:01;;;;;;;5.37;4.83;;;;;;;13.65;78.09;97562.09;4118521;28;20694;-86
2023/03/23 00:32:03;;;;;;;5.90;5.23;;;;;;;13.67;77.45;97554.91;4104627;28;20622;-87
2023/03/23 00:34:08;;;;;;;6.70;5.10;;;;;;;13.70;78.41;97557.25;4122718;28;20633;-86
2023/03/23 00:36:11;;;;;;;6.40;5.27;;;;;;;13.70;78.45;97546.78;4124610;28;21212;-86
2023/03/23 00:38:13;;;;;;;8.90;5.10;;;;;;;13.69;78.15;97547.72;4123167;28;20620;-86
2023/03/23 00:40:15;;;;;;;7.03;4.80;;;;;;;13.68;78.39;97546.09;4102162;28;20633;-86
2023/03/23 00:42:17;;;;;;;7.23;4.70;;;;;;;13.71;78.04;97551.06;4095941;28;20817;-86
2023/03/23 00:44:23;;;;;;;7.53;5.27;;;;;;;13.74;77.04;97542.06;4112637;28;20637;-86
2023/03/23 00:46:27;;;;;;;5.90;4.77;;;;;;;13.75;76.95;97539.31;4114226;28;20737;-86
2023/03/23 00:48:32;;;;;;;7.30;5.03;;;;;;;13.78;76.77;97546.91;4105066;28;20631;-86
2023/03/23 00:50:34;;;;;;;4.80;3.80;;;;;;;13.76;75.38;97532.31;4099342;28;20744;-86
2023/03/23 00:52:36;;;;;;;4.07;3.37;;;;;;;13.78;75.05;97531.19;4120330;28;20726;-86
2023/03/23 00:54:38;;;;;;;5.40;3.80;;;;;;;13.86;75.21;97531.34;4102088;28;20645;-86
2023/03/23 00:56:41;;;;;;;7.47;4.13;;;;;;;13.93;74.88;97524.56;4091845;28;21029;-86
2023/03/23 00:58:43;;;;;;;4.20;3.80;;;;;;;13.94;74.91;97528.84;4126794;28;20696;-86
2023/03/23 01:00:45;;;;;;;5.60;4.90;;;;;;;13.95;74.85;97520.03;4103563;28;21215;-86
2023/03/23 01:02:51;;;;;;;4.60;3.50;;;;;;;13.95;74.67;97527.88;4093568;28;21068;-86
2023/03/23 01:04:53;;;;;;;4.30;3.90;;;;;;;13.97;74.84;97528.56;4105824;28;20657;-86
2023/03/23 01:06:56;;;;;;;4.57;3.70;;;;;;;14.02;74.82;97536.03;4123316;28;20635;-86
2023/03/23 01:09:00;;;;;;;5.37;3.97;;;;;;;14.02;74.80;97523.72;4121105;28;20753;-86
2023/03/23 01:11:04;;;;;;;5.67;4.00;;;;;;;14.03;75.91;97525.38;4103431;28;20637;-86
2023/03/23 01:13:08;;;;;;;6.63;4.00;;;;;;;14.00;75.68;97523.03;4104616;28;20636;-86
2023/03/23 01:15:13;;;;;;;5.80;4.30;;;;;;;13.98;76.19;97518.91;4100276;28;20641;-86
2023/03/23 01:17:15;;;;;;;8.40;4.57;;;;;;;13.96;76.62;97513.78;4105084;28;20880;-86
2023/03/23 01:19:19;;;;;;;4.70;4.20;;;;;;;13.97;77.78;97507.59;4107237;28;20750;-86
2023/03/23 01:21:22;;;;;;;6.10;4.10;;;;;;;13.97;77.65;97498.91;4097424;28;20631;-86
2023/03/23 01:23:24;;;;;;;5.83;4.17;;;;;;;14.00;76.98;97515.19;4108645;28;20730;-86
2023/03/23 01:25:26;;;;;;;3.97;3.40;;;;;;;14.01;76.34;97506.34;4122652;28;20715;-86
2023/03/23 01:27:28;;;;;;;6.10;3.87;;;;;;;14.03;75.88;97499.16;4102237;28;20629;-86
2023/03/23 01:29:30;;;;;;;4.03;3.10;;;;;;;14.07;75.18;97503.19;4126394;28;20736;-86
2023/03/23 01:31:32;;;;;;;4.53;3.43;;;;;;;14.08;75.58;97490.91;4109008;28;20729;-86
2023/03/23 01:33:34;;;;;;;4.07;3.20;;;;;;;14.07;74.47;97494.50;4104559;28;20636;-86
2023/03/23 01:35:39;;;;;;;5.57;2.70;;;;;;;14.13;74.31;97497.38;4101753;28;21193;-86
2023/03/23 01:37:42;;;;;;;4.13;2.47;;;;;;;14.16;73.39;97494.47;4091744;28;20628;-85
2023/03/23 01:39:44;;;;;;;4.23;3.20;;;;;;;14.17;73.92;97496.94;4118602;28;20628;-86
2023/03/23 01:41:46;;;;;;;4.30;3.33;;;;;;;14.18;73.51;97500.44;4136619;28;20884;-86
2023/03/23 01:44:01;;;;;;;3.83;2.87;;;;;;;14.22;73.35;97499.16;4104889;28;20634;-86
2023/03/23 01:46:05;;;;;;;3.70;3.00;;;;;;;14.25;73.46;97502.34;4102265;28;20623;-86
2023/03/23 01:48:11;;;;;;;4.70;3.40;;;;;;;14.28;73.95;97498.59;4094566;28;20640;-86
2023/03/23 01:50:13;;;;;;;5.03;3.20;;;;;;;14.26;74.00;97495.28;4102461;28;20751;-86
2023/03/23 01:52:21;;;;;;;4.20;3.13;;;;;;;14.29;72.82;97495.81;4116067;28;20734;-87
2023/03/23 01:54:25;;;;;;;5.30;3.50;;;;;;;14.32;73.05;97492.91;4107050;28;20712;-86
2023/03/23 01:56:32;;;;;;;5.10;3.30;;;;;;;14.36;72.99;97491.69;4127162;28;20768;-86
2023/03/23 01:58:38;;;;;;;4.03;2.80;;;;;;;14.38;72.99;97486.28;4119546;28;20637;-86
2023/03/23 02:00:42;;;;;;;4.67;3.50;;;;;;;14.43;72.44;97484.06;4114903;28;20635;-86
2023/03/23 02:02:47;;;;;;;3.80;2.43;;;;;;;14.44;73.14;97477.84;4089875;28;20693;-86
2023/03/23 02:04:51;;;;;;;3.57;2.70;;;;;;;14.44;72.62;97472.59;4115097;28;21121;-86
2023/03/23 02:06:54;;;;;;;4.37;3.23;;;;;;;14.42;73.19;97466.69;4110136;28;20626;-86
2023/03/23 02:08:59;;;;;;;3.73;2.73;;;;;;;14.43;73.11;97463.88;4122615;28;20656;-86
2023/03/23 02:11:02;;;;;;;4.67;2.77;;;;;;;14.44;73.02;97464.72;4089352;28;20628;-86
2023/03/23 02:13:07;;;;;;;3.63;2.47;;;;;;;14.48;72.35;97466.06;4102013;28;20635;-86
2023/03/23 02:15:10;;;;;;;5.33;2.23;;;;;;;14.51;71.88;97473.66;4104679;28;20672;-86
2023/03/23 02:17:21;;;;;;;3.13;2.50;;;;;;;14.53;71.07;97472.56;4124536;28;20638;-86
2023/03/23 02:19:57;;;;;;;2.80;2.43;;;;;;;14.56;71.69;97469.63;4111314;28;20639;-86
2023/03/23 02:22:22;;;;;;;3.10;2.27;;;;;;;14.57;71.44;97467.84;4120018;28;20721;-86
2023/03/23 02:24:53;;;;;;;4.87;2.97;;;;;;;14.53;72.07;97466.50;4123760;28;20697;-86
2023/03/23 02:26:58;;;;;;;4.70;3.27;;;;;;;14.51;73.61;97471.03;4127274;28;20630;-86
2023/03/23 02:29:28;;;;;;;3.37;2.50;;;;;;;14.48;73.30;97469.53;4095999;28;20732;-86
2023/03/23 02:31:47;;;;;;;6.20;2.70;;;;;;;14.48;73.47;97466.91;4090559;28;20637;-86
2023/03/23 02:33:55;;;;;;;3.20;2.47;;;;;;;14.47;73.63;97467.88;4103687;28;21188;-87
2023/03/23 02:35:59;;;;;;;2.70;2.03;;;;;;;14.48;72.80;97463.44;4116022;28;20634;-86
2023/03/23 02:38:03;;;;;;;3.73;2.70;;;;;;;14.50;72.73;97462.34;4103906;28;20643;-86
2023/03/23 02:40:11;;;;;;;3.70;2.30;;;;;;;14.51;73.02;97457.91;4092819;28;20656;-86
2023/03/23 02:42:14;;;;;;;2.90;2.40;;;;;;;14.51;72.83;97455.28;4085586;28;21022;-86
2023/03/23 02:44:18;;;;;;;4.27;2.37;;;;;;;14.53;72.38;97458.63;4118434;28;21286;-86
2023/03/23 02:46:21;;;;;;;2.67;2.10;;;;;;;14.51;73.08;97447.41;4105523;28;20650;-86
2023/03/23 02:48:25;;;;;;;3.17;2.40;;;;;;;14.47;72.79;97441.63;4102160;28;21204;-86
2023/03/23 02:50:29;;;;;;;4.70;2.73;;;;;;;14.45;74.08;97437.50;4107536;28;20626;-86
2023/03/23 02:52:32;;;;;;;4.03;2.40;;;;;;;14.46;73.45;97433.91;4106626;28;20643;-86
2023/03/23 02:54:35;;;;;;;4.63;2.60;;;;;;;14.43;72.51;97426.31;4107237;28;20620;-86
2023/03/23 02:56:37;;;;;;;3.37;2.33;;;;;;;14.44;73.31;97420.13;4093497;28;20734;-86
2023/03/23 02:58:45;;;;;;;3.43;2.50;;;;;;;14.45;72.58;97429.63;4109770;28;20639;-86
2023/03/23 03:00:49;;;;;;;4.90;2.20;;;;;;;14.46;72.64;97421.59;4098677;28;20639;-86
2023/03/23 03:02:53;;;;;;;5.37;2.43;;;;;;;14.46;72.92;97426.84;4106862;28;20643;-86
2023/03/23 03:05:02;;;;;;;3.50;2.60;;;;;;;14.45;72.28;97414.72;4090569;28;21090;-86
2023/03/23 03:07:35;;;;;;;3.10;2.23;;;;;;;14.45;72.70;97411.25;4104308;28;20635;-86
2023/03/23 03:09:43;;;;;;;4.43;2.20;;;;;;;14.46;72.44;97413.72;4083402;28;20640;-86
2023/03/23 03:11:49;;;;;;;5.63;2.50;;;;;;;14.47;71.35;97404.09;4102475;28;20641;-86
2023/03/23 03:13:55;;;;;;;2.80;2.03;;;;;;;14.51;71.29;97405.44;4088222;28;20691;-86
2023/03/23 03:16:00;;;;;;;3.00;2.30;;;;;;;14.55;70.30;97404.19;4107341;28;20987;-86
2023/03/23 03:18:08;;;;;;;4.60;2.10;;;;;;;14.59;70.27;97401.13;4096267;28;20645;-86
2023/03/23 03:20:13;;;;;;;3.20;2.80;;;;;;;14.65;70.79;97395.28;4106187;28;20640;-86
2023/03/23 03:22:15;;;;;;;2.80;2.23;;;;;;;14.68;69.41;97395.81;4103599;28;21069;-86
2023/03/23 03:24:21;;;;;;;3.80;2.30;;;;;;;14.72;70.64;97399.81;4104887;28;20677;-86
2023/03/23 03:26:27;;;;;;;3.57;1.93;;;;;;;14.75;69.86;97404.75;4116730;28;20656;-86
2023/03/23 03:28:34;;;;;;;3.17;2.33;;;;;;;14.80;69.57;97410.38;4129151;28;21127;-86
2023/03/23 03:30:38;;;;;;;3.00;2.03;;;;;;;14.85;69.54;97409.94;4121032;28;20634;-86
2023/03/23 03:32:46;;;;;;;3.33;2.10;;;;;;;14.89;70.24;97409.50;4118975;28;20698;-86
2023/03/23 03:34:50;;;;;;;2.90;2.00;;;;;;;14.93;69.39;97410.03;4124816;28;20640;-86
2023/03/23 03:36:55;;;;;;;2.83;2.40;;;;;;;14.93;69.80;97408.25;4124231;28;20627;-86
2023/03/23 03:39:00;;;;;;;3.80;2.07;;;;;;;14.95;69.42;97410.72;4090235;28;20647;-86
2023/03/23 03:41:03;;;;;;;3.07;2.30;;;;;;;14.97;69.97;97412.22;4103290;28;20694;-86
2023/03/23 03:43:06;;;;;;;4.40;2.67;;;;;;;14.98;70.62;97411.25;4087484;28;20748;-86
2023/03/23 03:45:10;;;;;;;3.47;2.67;;;;;;;14.97;70.93;97412.22;4106153;28;21212;-86
2023/03/23 03:47:12;;;;;;;3.17;2.33;;;;;;;14.98;70.77;97413.88;4127634;28;20611;-87
2023/03/23 03:49:15;;;;;;;5.10;2.23;;;;;;;15.01;70.25;97407.50;4109959;28;21207;-86
2023/03/23 03:51:18;;;;;;;3.10;2.40;;;;;;;15.00;70.05;97403.22;4091980;28;20636;-86
2023/03/23 03:53:25;;;;;;;4.03;3.00;;;;;;;15.00;71.48;97408.47;4110632;28;21043;-86
2023/03/23 03:55:27;;;;;;;5.73;3.00;;;;;;;14.98;71.07;97400.75;4103692;28;20639;-86
2023/03/23 03:57:32;;;;;;;4.03;2.50;;;;;;;14.95;70.49;97401.03;4109361;28;20664;-86
2023/03/23 03:59:40;;;;;;;2.47;2.27;;;;;;;14.93;70.53;97403.00;4119813;28;20632;-86
2023/03/23 04:02:02;;;;;;;4.93;2.10;;;;;;;14.88;70.61;97399.97;4113171;28;20630;-86
2023/03/23 04:04:06;;;;;;;3.23;2.40;;;;;;;14.84;71.49;97401.25;4116819;28;20669;-86
2023/03/23 04:06:12;;;;;;;4.60;2.10;;;;;;;14.83;70.51;97402.22;4104366;28;20650;-86
2023/03/23 04:08:14;;;;;;;3.40;2.37;;;;;;;14.83;70.57;97394.34;4107963;28;20677;-86
2023/03/23 04:10:19;;;;;;;5.20;2.93;;;;;;;14.82;71.71;97395.31;4107312;28;20639;-86
2023/03/23 04:12:21;;;;;;;6.00;2.77;;;;;;;14.80;71.06;97399.88;4125157;28;20660;-87
2023/03/23 04:14:34;;;;;;;4.83;2.80;;;;;;;14.80;71.01;97397.25;4115360;28;20713;-86
2023/03/23 04:16:36;;;;;;;4.80;2.50;;;;;;;14.81;69.99;97393.66;4093329;28;20654;-86
2023/03/23 04:18:38;;;;;;;3.30;2.40;;;;;;;14.83;69.88;97402.22;4110692;28;20994;-86
2023/03/23 04:20:40;;;;;;;3.10;2.40;;;;;;;14.86;69.62;97401.09;4093765;28;20679;-86
2023/03/23 04:22:43;;;;;;;5.00;2.30;;;;;;;14.86;69.73;97404.53;4119279;28;20755;-87
2023/03/23 04:24:45;;;;;;;2.57;2.10;;;;;;;14.89;70.12;97406.88;4090985;28;20730;-86
2023/03/23 04:26:54;;;;;;;3.57;2.50;;;;;;;14.93;69.36;97410.03;4113682;28;20639;-86
2023/03/23 04:29:02;;;;;;;3.50;2.40;;;;;;;14.95;70.12;97398.41;4108669;28;20650;-86
2023/03/23 04:31:25;;;;;;;2.77;2.33;;;;;;;14.97;69.79;97406.13;4118202;28;20785;-86
2023/03/23 04:33:36;;;;;;;3.80;2.20;;;;;;;15.00;70.08;97405.84;4108125;28;20722;-86
2023/03/23 04:35:39;;;;;;;2.90;2.03;;;;;;;15.03;69.44;97410.81;4121492;28;20619;-86
2023/03/23 04:37:50;;;;;;;3.00;2.10;;;;;;;15.07;69.23;97411.16;4097768;28;20655;-86
2023/03/23 04:40:00;;;;;;;6.33;2.20;;;;;;;15.11;69.78;97406.47;4106409;28;21244;-86
2023/03/23 04:42:03;;;;;;;3.27;2.23;;;;;;;15.13;68.31;97404.50;4126404;28;20660;-86
2023/03/23 04:44:27;;;;;;;3.83;2.20;;;;;;;15.17;68.39;97409.34;4120439;28;20666;-86
2023/03/23 04:46:53;;;;;;;4.10;2.20;;;;;;;15.21;68.04;97410.69;4108479;28;20687;-86
2023/03/23 04:48:58;;;;;;;2.80;2.30;;;;;;;15.24;68.08;97396.44;4095695;28;20669;-87
2023/03/23 04:51:05;;;;;;;2.53;2.30;;;;;;;15.28;68.75;97397.78;4139884;28;20674;-87
2023/03/23 04:53:08;;;;;;;2.93;2.10;;;;;;;15.28;68.10;97385.47;4092780;28;20636;-86
2023/03/23 04:55:10;;;;;;;3.00;2.17;;;;;;;15.31;67.70;97390.44;4103083;28;20717;-87
2023/03/23 04:57:15;;;;;;;3.60;2.10;;;;;;;15.35;66.70;97391.78;4124882;28;20634;-87
2023/03/23 04:59:27;;;;;;;2.93;2.10;;;;;;;15.37;68.82;97389.81;4120897;28;20631;-87
2023/03/23 05:01:38;;;;;;;2.83;2.03;;;;;;;15.39;68.76;97400.19;4110506;28;20987;-86
2023/03/23 05:03:54;;;;;;;2.40;2.20;;;;;;;15.42;68.49;97397.25;4103485;28;20798;-86
2023/03/23 05:05:57;;;;;;;2.87;1.90;;;;;;;15.45;67.13;97389.06;4106945;28;20673;-87
2023/03/23 05:07:59;;;;;;;2.70;2.00;;;;;;;15.46;68.36;97396.00;4113693;28;21093;-86
2023/03/23 05:10:06;;;;;;;2.47;2.10;;;;;;;15.45;68.21;97399.59;4103841;28;20636;-86
2023/03/23 05:12:09;;;;;;;2.87;2.30;;;;;;;15.46;67.61;97393.38;4092919;28;20645;-87
2023/03/23 05:14:23;;;;;;;6.20;2.00;;;;;;;15.47;68.42;97392.38;4103639;28;20645;-86
2023/03/23 05:16:37;;;;;;;2.60;2.10;;;;;;;15.44;68.24;97397.91;4111376;28;20659;-86
2023/03/23 05:18:39;;;;;;;2.57;2.17;;;;;;;15.45;69.38;97394.31;4094948;28;20671;-87
2023/03/23 05:20:46;;;;;;;2.60;2.20;;;;;;;15.44;68.73;97390.88;4090580;28;20667;-87
2023/03/23 05:22:52;;;;;;;3.63;1.90;;;;;;;15.44;68.12;97390.03;4108042;28;20633;-86
2023/03/23 05:25:03;;;;;;;2.57;2.03;;;;;;;15.44;67.76;97387.41;4116869;28;21460;-86
2023/03/23 05:27:08;;;;;;;3.10;2.00;;;;;;;15.44;68.13;97387.41;4087195;28;20660;-86
2023/03/23 05:29:14;;;;;;;2.40;1.80;;;;;;;15.48;67.75;97383.50;4102947;28;20718;-87
2023/03/23 05:31:24;;;;;;;3.40;2.20;;;;;;;15.51;66.92;97385.84;4093155;28;20659;-86
2023/03/23 05:33:26;;;;;;;5.70;2.23;;;;;;;15.51;67.71;97391.09;4087407;28;20643;-86
2023/03/23 05:35:40;;;;;;;4.00;1.90;;;;;;;15.49;66.79;97385.19;4125526;28;20636;-87
2023/03/23 05:37:44;;;;;;;3.73;2.20;;;;;;;15.47;67.67;97393.22;4117109;28;20642;-87
2023/03/23 05:39:47;;;;;;;2.87;2.20;;;;;;;15.45;68.93;97386.44;4117017;28;20675;-86
2023/03/23 05:42:01;;;;;;;3.00;2.37;;;;;;;15.43;68.66;97391.03;4120585;28;20634;-87
2023/03/23 05:44:15;;;;;;;2.90;2.00;;;;;;;15.39;67.54;97394.94;4128004;28;20656;-87
2023/03/23 05:46:22;;;;;;;2.70;2.10;;;;;;;15.39;69.11;97390.50;4122843;28;21238;-87
2023/03/23 05:48:24;;;;;;;2.57;2.00;;;;;;;15.39;68.43;97394.94;4134763;28;20646;-87
2023/03/23 05:50:27;;;;;;;2.43;1.90;;;;;;;15.36;69.03;97387.34;4092383;28;20686;-86
2023/03/23 05:52:32;;;;;;;3.60;2.20;;;;;;;15.40;68.05;97393.97;4089044;28;21573;-87
2023/03/23 05:54:37;;;;;;;3.70;2.25;;;;;;;15.44;68.28;97404.03;4102299;28;20757;-87
2023/03/23 05:56:39;;;;;;;2.70;2.13;;;;;;;15.45;69.06;97394.31;4092893;28;20632;-87
2023/03/23 05:59:17;;;;;;;2.63;2.03;;;;;;;15.46;69.47;97399.44;4106026;28;20773;-87
2023/03/23 06:01:21;;;;;;;3.23;2.20;;;;;;;15.48;68.45;97391.41;4116540;28;20647;-87
2023/03/23 06:03:23;;;;;;;5.17;2.00;;;;;;;15.48;69.42;97399.28;4086293;28;20714;-87
2023/03/23 06:05:33;;;;;;;2.73;2.10;;;;;;;15.49;69.57;97400.94;4118200;28;20670;-88
2023/03/23 06:07:35;;;;;;;2.77;2.40;;;;;;;15.49;69.05;97411.47;4117919;28;21237;-87
2023/03/23 06:09:42;;;;;;;3.00;2.20;;;;;;;15.48;67.83;97421.13;4120802;28;20623;-87
2023/03/23 06:12:11;;;;;;;3.50;2.53;;;;;;;15.47;68.60;97410.75;4087741;28;20968;-89
2023/03/23 06:14:37;;;;;;;2.77;2.00;;;;;;;15.48;67.92;97420.31;4111489;28;20661;-89
2023/03/23 06:16:40;;;;;;;3.17;2.37;;;;;;;15.49;68.36;97430.66;4091209;28;20626;-89
2023/03/23 06:18:46;;;;;;;2.47;1.90;;;;;;;15.47;68.53;97422.13;4108910;28;21051;-85
2023/03/23 06:21:01;;;;;;;3.50;2.23;;;;;;;15.47;68.43;97435.25;4120852;28;20746;-85
2023/03/23 06:23:29;;;;;;;3.53;2.30;;;;;;;15.48;68.20;97442.16;4112467;28;20715;-85
2023/03/23 06:25:34;;;;;;;3.20;2.30;;;;;;;15.49;68.91;97445.63;4104985;28;20746;-85
2023/03/23 06:27:36;;;;;;;2.80;2.27;;;;;;;15.51;69.28;97441.03;4098736;28;20640;-85
2023/03/23 06:29:39;;;;;;;3.23;2.00;;;;;;;15.51;68.60;97446.28;4103096;28;21208;-85
2023/03/23 06:31:43;;;;;;;3.07;1.90;;;;;;;15.53;69.51;97441.69;4093143;28;20739;-85
2023/03/23 06:33:47;;;;;;;3.30;2.17;;;;;;;15.55;67.72;97445.84;4113300;28;20622;-85
2023/03/23 06:36:01;;;;;;;4.40;2.93;;;;;;;15.57;68.68;97446.50;4127830;28;20734;-85
2023/03/23 06:38:32;;;;;;;4.17;2.60;;;;;;;15.60;68.57;97440.94;4100693;28;20650;-85
2023/03/23 06:40:36;;;;;;;5.47;2.77;;;;;;;15.59;69.85;97441.91;4107990;28;20659;-85
2023/03/23 06:42:40;;;;;;;2.60;2.33;;;;;;;15.58;69.83;97441.09;4117558;28;20682;-85
2023/03/23 06:45:03;;;;;;;4.33;2.90;;;;;;;15.56;69.43;97443.06;4104980;28;21228;-85
2023/03/23 06:47:07;;;;;;;3.37;2.50;;;;;;;15.57;70.09;97444.72;4092497;28;20699;-85
2023/03/23 06:49:12;;;;;;;4.00;2.73;;;;;;;15.57;71.13;97451.75;4117002;28;20629;-85
2023/03/23 06:51:23;;;;;;;6.03;3.23;;;;;;;15.57;70.27;97452.63;4133962;28;20622;-87
2023/03/23 06:53:28;;;;;;;4.95;3.50;;;;;;;15.58;70.53;97448.97;4113229;28;20762;-85
2023/03/23 06:55:32;;;;;;;4.93;3.20;;;;;;;15.62;71.14;97454.75;4115819;28;20215;-85
2023/03/23 06:57:36;;;;;;;6.23;3.40;;;;;;;15.65;72.42;97460.56;4100261;28;20663;-85
2023/03/23 06:59:38;;;;;;;5.27;3.63;;;;;;;15.67;74.31;97460.41;4110443;28;20642;-84
2023/03/23 07:01:41;;;;;;;4.90;3.20;;;;;;;15.69;74.84;97461.91;4115660;28;20758;-88
2023/03/23 07:03:44;;;;;;;8.50;6.63;;;;;;;15.72;75.82;97464.22;4108176;28;20702;-88
2023/03/23 07:05:48;;;;;;;8.77;7.33;;;;;;;15.77;78.54;97469.03;4099916;28;20654;-88
2023/03/23 07:07:52;;;;;;;8.00;5.50;;;;;;;15.81;78.67;97465.94;4107554;28;20630;-86
2023/03/23 07:10:02;;;;;;;4.10;3.70;;;;;;;15.87;80.47;97464.53;4111339;28;21129;-89
2023/03/23 07:12:06;;;;;;;6.70;4.03;;;;;;;15.91;77.43;97471.97;4091191;28;21262;-88
2023/03/23 07:14:16;;;;;;;4.20;3.17;;;;;;;15.93;76.78;97480.50;4109403;28;20675;-88
2023/03/23 07:16:18;;;;;;;4.40;3.17;;;;;;;15.97;76.77;97476.59;4120448;28;20631;-89
2023/03/23 07:18:20;;;;;;;4.53;3.33;;;;;;;15.98;74.17;97483.50;4119547;28;21003;-86
2023/03/23 07:20:26;;;;;;;5.80;4.00;;;;;;;15.97;75.72;97486.31;4107158;28;20648;-87
2023/03/23 07:22:28;;;;;;;6.63;4.27;;;;;;;15.87;77.05;97486.38;4105851;28;21057;-86
2023/03/23 07:24:39;;;;;;;4.97;4.43;;;;;;;15.72;74.62;97479.19;4098690;28;20693;-86
2023/03/23 07:26:52;;;;;;;9.10;5.10;;;;;;;15.70;75.26;97494.28;4090047;28;20732;-86
2023/03/23 07:28:54;;;;;;;5.63;3.97;;;;;;;15.67;74.99;97495.41;4104670;28;20644;-84
2023/03/23 07:31:24;;;;;;;7.90;4.60;;;;;;;15.70;76.95;97507.44;4122786;28;20632;-84
2023/03/23 07:33:27;;;;;;;5.77;4.40;;;;;;;15.68;79.28;97502.34;4109812;28;20750;-85
2023/03/23 07:35:32;;;;;;;4.80;4.23;;;;;;;15.65;78.32;97509.66;4111000;28;20637;-84
2023/03/23 07:37:38;;;;;;;4.20;3.30;;;;;;;15.62;76.24;97508.19;4111398;28;20632;-85
2023/03/23 07:39:41;;;;;;;7.83;3.70;;;;;;;15.60;77.10;97515.38;4126821;28;20660;-85
2023/03/23 07:41:45;;;;;;;6.00;3.90;;;;;;;15.62;78.09;97512.59;4091394;28;20802;-85
2023/03/23 07:43:54;;;;;;;6.67;3.83;;;;;;;15.64;78.26;97518.56;4131605;28;20219;-84
2023/03/23 07:46:05;;;;;;;5.37;4.40;;;;;;;15.67;75.67;97529.59;4124078;28;20686;-85
2023/03/23 07:48:19;;;;;;;5.70;5.10;;;;;;;15.69;77.92;97526.81;4102333;28;21223;-84
2023/03/23 07:50:23;;;;;;;5.70;4.23;;;;;;;15.72;76.04;97534.41;4128056;28;21305;-85
2023/03/23 07:52:26;;;;;;;5.90;4.30;;;;;;;15.74;76.33;97533.28;4112534;28;21264;-85
2023/03/23 07:54:28;;;;;;;4.37;3.83;;;;;;;15.77;77.08;97537.41;4111012;28;22050;-85
2023/03/23 07:56:48;;;;;;;4.30;3.37;;;;;;;15.79;77.00;97531.03;4109775;28;20666;-85
2023/03/23 07:58:56;;;;;;;3.97;2.80;;;;;;;15.85;75.94;97540.13;4111020;28;20719;-85
2023/03/23 08:00:58;;;;;;;8.33;3.03;;;;;;;15.90;73.94;97537.88;4097661;28;20646;-84
2023/03/23 08:03:06;;;;;;;6.60;3.40;;;;;;;15.92;74.71;97536.75;4092196;28;20784;-85
2023/03/23 08:05:29;;;;;;;4.00;3.10;;;;;;;16.00;76.18;97535.97;4124610;28;22441;-87
2023/03/23 08:07:55;;;;;;;3.17;2.70;;;;;;;16.13;73.50;97534.59;4102665;28;20207;-86
2023/03/23 08:10:18;;;;;;;4.77;3.53;;;;;;;16.27;75.80;97531.47;4105710;28;20628;-86
2023/03/23 08:12:41;;;;;;;3.70;2.80;;;;;;;16.50;75.24;97540.53;4112859;28;20668;-86
2023/03/23 08:14:49;;;;;;;4.30;3.40;;;;;;;16.69;75.26;97547.22;4125010;28;21216;-86
2023/03/23 08:17:09;;;;;;;7.13;2.80;;;;;;;16.83;74.32;97556.38;4118669;28;20632;-87
2023/03/23 08:19:36;;;;;;;3.80;2.90;;;;;;;16.93;74.24;97557.06;4121287;28;21251;-87
2023/03/23 08:22:09;;;;;;;4.17;3.50;;;;;;;17.00;73.11;97558.91;4101018;28;20986;-87
2023/03/23 08:24:28;;;;;;;5.47;3.17;;;;;;;17.02;73.43;97555.16;4109443;28;20684;-87
2023/03/23 08:26:50;;;;;;;5.07;3.13;;;;;;;17.08;74.09;97562.44;4112795;28;20743;-86
2023/03/23 08:29:19;;;;;;;3.10;2.40;;;;;;;17.13;73.75;97564.59;4127057;28;20619;-87
2023/03/23 08:31:21;;;;;;;3.53;2.90;;;;;;;17.19;72.69;97569.25;4126533;28;20631;-86
2023/03/23 08:33:33;;;;;;;4.70;2.90;;;;;;;17.25;71.46;97572.09;4099454;28;20631;-86
2023/03/23 08:35:57;;;;;;;5.20;2.80;;;;;;;17.29;71.94;97570.81;4132742;28;20923;-87
2023/03/23 08:38:21;;;;;;;3.63;2.70;;;;;;;17.32;71.52;97575.75;4128977;28;20754;-87
2023/03/23 08:40:39;;;;;;;5.83;2.30;;;;;;;17.36;72.20;97571.81;4122599;28;20217;-86
2023/03/23 08:42:58;;;;;;;4.10;3.10;;;;;;;17.39;71.48;97582.03;4111473;28;20700;-86
2023/03/23 08:45:22;;;;;;;3.40;2.60;;;;;;;17.44;72.11;97578.94;4100512;28;20664;-86
2023/03/23 08:47:41;;;;;;;4.23;2.60;;;;;;;17.44;71.94;97577.13;4109320;28;20731;-86
2023/03/23 08:49:46;;;;;;;3.57;2.80;;;;;;;17.45;72.06;97575.31;4105590;28;21217;-86
2023/03/23 08:52:11;;;;;;;3.20;2.40;;;;;;;17.46;71.86;97572.53;4105106;28;20678;-86
2023/03/23 08:54:31;;;;;;;3.53;2.50;;;;;;;17.50;71.56;97585.22;4097642;28;20621;-86
2023/03/23 08:56:47;;;;;;;4.83;3.30;;;;;;;17.53;71.56;97584.91;4122734;28;21175;-86
2023/03/23 08:59:07;;;;;;;3.50;2.63;;;;;;;17.48;71.09;97589.84;4119807;28;21214;-86
2023/03/23 09:01:20;;;;;;;3.43;2.60;;;;;;;17.39;71.86;97592.59;4087779;28;20638;-86
2023/03/23 09:03:36;;;;;;;3.93;2.67;;;;;;;17.30;72.72;97598.81;4108794;28;20687;-86
2023/03/23 09:06:12;;;;;;;3.07;2.70;;;;;;;17.20;71.87;97591.97;4113542;28;21213;-86
2023/03/23 09:08:21;;;;;;;3.63;2.90;;;;;;;17.13;72.53;97591.78;4105992;28;20715;-86
2023/03/23 09:10:24;;;;;;;3.83;2.80;;;;;;;17.07;73.91;97599.50;4110290;28;20665;-86
2023/03/23 09:12:26;;;;;;;3.67;2.87;;;;;;;17.03;74.55;97606.03;4110147;28;20639;-86
2023/03/23 09:14:28;;;;;;;6.63;3.00;;;;;;;16.99;74.80;97607.34;4089978;28;20645;-87
2023/03/23 09:16:31;;;;;;;4.10;3.08;;;;;;;16.96;74.36;97610.31;4086318;28;20847;-86
2023/03/23 09:18:34;;;;;;;5.63;3.00;;;;;;;16.95;74.17;97610.47;4101302;28;20293;-86
2023/03/23 09:20:37;;;;;;;4.73;3.27;;;;;;;16.91;74.76;97614.38;4113175;28;21194;-86
2023/03/23 09:22:40;;;;;;;3.43;2.90;;;;;;;16.90;75.32;97616.19;4112479;28;20640;-86
2023/03/23 09:24:42;;;;;;;3.63;3.03;;;;;;;16.90;74.23;97618.81;4128199;28;20721;-87
2023/03/23 09:26:46;;;;;;;3.80;2.80;;;;;;;16.91;74.08;97622.28;4125306;28;20700;-87
2023/03/23 09:28:48;;;;;;;5.23;2.83;;;;;;;16.94;75.78;97625.41;4092543;28;20719;-87
2023/03/23 09:30:51;;;;;;;4.20;2.93;;;;;;;16.94;75.50;97622.78;4122028;28;20624;-86
2023/03/23 09:32:53;;;;;;;5.97;3.47;;;;;;;16.99;76.29;97626.63;4121504;28;20866;-86
2023/03/23 09:34:56;;;;;;;5.03;4.13;;;;;;;16.99;75.11;97621.34;4092278;28;20285;-87
2023/03/23 09:36:59;;;;;;;7.60;4.30;;;;;;;17.03;74.88;97616.59;4105957;28;21317;-86
2023/03/23 09:39:01;;;;;;;6.60;4.23;;;;;;;17.07;75.65;97620.56;4090064;28;20633;-86
2023/03/23 09:41:12;;;;;;;4.00;2.70;;;;;;;16.89;74.09;97611.88;4095408;28;20763;-86
2023/03/23 09:43:24;;;;;;;3.63;2.60;;;;;;;16.95;74.78;97621.00;4104399;28;20257;-89
2023/03/23 09:45:29;;;;;;;3.90;3.27;;;;;;;16.90;74.78;97621.47;4106955;28;20767;-90
2023/03/23 09:47:37;;;;;;;4.78;3.20;;;;;;;16.94;75.62;97620.16;4109523;28;20754;-84
2023/03/23 09:49:43;;;;;;;7.20;4.73;;;;;;;16.95;73.42;97624.44;4120702;28;21512;-84
2023/03/23 09:51:47;;;;;;;4.63;2.50;;;;;;;16.94;73.55;97619.34;4117790;28;20636;-85
2023/03/23 09:53:52;;;;;;;6.73;3.27;;;;;;;16.96;72.98;97630.53;4125949;28;20674;-85
2023/03/23 09:55:54;;;;;;;3.73;2.30;;;;;;;16.98;72.35;97634.69;4125396;28;20626;-86
2023/03/23 09:58:02;;;;;;;3.90;2.60;;;;;;;17.01;73.01;97623.81;4102091;28;21070;-86
2023/03/23 10:00:14;;;;;;;5.90;3.70;;;;;;;17.07;73.61;97637.19;4109546;28;21058;-86
2023/03/23 10:02:18;;;;;;;5.73;4.03;;;;;;;17.18;73.23;97642.19;4107109;28;20633;-85